Time;durP1;ratioP1;P1;durP2;ratioP2;P2;SDS_P1;SDS_P2;PMS_P1;PMS_P2;Temp;Humidity;BMP_temperature;BMP_pressure;BME280_temperature;BME280_humidity;BME280_pressure;Samples;Min_cycle;Max_cycle;Signal;HPM_P1;HPM_P2
2022/10/25 00:02:13;;;;;;;13.27;1.65;;;;;;;23.00;99.45;97346.13;6243252;23;20079;-94
2022/10/25 00:04:39;;;;;;;8.65;1.40;;;;;;;22.53;100.00;97345.53;6242916;23;20090;-94
2022/10/25 00:07:04;;;;;;;9.00;1.60;;;;;;;22.89;100.00;97359.47;6243985;22;20127;-93
2022/10/25 00:09:30;;;;;;;9.02;1.45;;;;;;;23.50;99.42;97328.78;6243153;23;20079;-93
2022/10/25 00:11:55;;;;;;;9.10;1.40;;;;;;;22.58;100.00;97364.63;6243133;23;20016;-94
2022/10/25 00:14:21;;;;;;;9.07;1.42;;;;;;;23.36;100.00;97367.19;6243676;23;20012;-96
2022/10/25 00:16:47;;;;;;;10.52;1.70;;;;;;;22.82;100.00;97369.75;6243989;23;20048;-95
2022/10/25 00:19:13;;;;;;;9.82;1.60;;;;;;;22.81;100.00;97365.44;6243327;23;20019;-93
2022/10/25 00:21:39;;;;;;;11.52;1.48;;;;;;;23.35;100.00;97358.38;6243145;23;20012;-93
2022/10/25 00:24:05;;;;;;;9.43;1.50;;;;;;;23.88;97.78;97358.44;6244424;22;20039;-94
2022/10/25 00:26:30;;;;;;;12.23;1.35;;;;;;;24.51;94.42;97364.44;6244065;23;20015;-95
2022/10/25 00:28:56;;;;;;;9.02;1.60;;;;;;;22.38;99.88;97352.94;6242884;23;20117;-92
2022/10/25 00:31:23;;;;;;;12.32;1.83;;;;;;;22.61;100.00;97367.03;6244945;23;20357;-95
2022/10/25 00:33:48;;;;;;;8.77;1.50;;;;;;;22.69;100.00;97374.41;6244306;23;20098;-94
2022/10/25 00:36:23;;;;;;;8.35;1.40;;;;;;;24.16;97.65;97373.72;6244665;23;20027;-94
2022/10/25 00:38:49;;;;;;;9.43;1.40;;;;;;;24.34;96.44;97378.41;6245908;22;20079;-94
2022/10/25 00:41:17;;;;;;;8.48;1.48;;;;;;;23.02;97.75;97365.47;6243894;23;20035;-94
2022/10/25 00:43:48;;;;;;;8.57;1.27;;;;;;;23.10;99.63;97372.81;6243293;23;20007;-95
2022/10/25 00:46:18;;;;;;;8.98;1.42;;;;;;;22.97;100.00;97380.13;6245224;23;20115;-95
2022/10/25 00:49:04;;;;;;;11.13;1.85;;;;;;;22.60;100.00;97380.44;6244477;23;20012;-95
2022/10/25 00:51:37;;;;;;;6.10;1.38;;;;;;;22.92;100.00;97384.97;6243618;23;20008;-94
2022/10/25 00:54:04;;;;;;;9.52;1.58;;;;;;;22.71;100.00;97391.03;6243629;23;20413;-94
2022/10/25 00:56:35;;;;;;;7.90;1.83;;;;;;;22.85;100.00;97381.94;6243453;23;20118;-94
2022/10/25 00:59:06;;;;;;;8.27;1.50;;;;;;;22.71;100.00;97384.91;6243315;23;20087;-94
2022/10/25 01:01:31;;;;;;;10.77;2.13;;;;;;;22.81;100.00;97394.66;6246186;22;20022;-94
2022/10/25 01:04:01;;;;;;;10.85;1.40;;;;;;;23.23;98.58;97382.47;6244715;23;20305;-94
2022/10/25 01:06:33;;;;;;;8.07;1.60;;;;;;;23.27;99.43;97390.09;6244390;23;20004;-95
2022/10/25 01:09:01;;;;;;;8.27;1.70;;;;;;;24.11;96.24;97394.56;6244305;23;20088;-94
2022/10/25 01:11:26;;;;;;;9.43;1.55;;;;;;;23.89;97.84;97387.59;6243736;23;20015;-94
2022/10/25 01:13:52;;;;;;;12.38;1.80;;;;;;;23.93;97.48;97397.00;6243404;23;20023;-94
2022/10/25 01:16:27;;;;;;;8.93;1.70;;;;;;;22.93;99.78;97391.97;6244031;23;20008;-94
2022/10/25 01:19:04;;;;;;;8.38;1.60;;;;;;;23.91;95.69;97384.78;6243807;23;20272;-94
2022/10/25 01:21:30;;;;;;;10.80;1.58;;;;;;;23.95;97.76;97392.41;6243694;23;20087;-94
2022/10/25 01:24:08;;;;;;;13.27;2.00;;;;;;;23.80;95.47;97391.00;6243092;23;20129;-94
2022/10/25 01:26:51;;;;;;;7.90;1.42;;;;;;;23.68;97.77;97393.72;6243491;22;20000;-94
2022/10/25 01:29:41;;;;;;;10.40;1.67;;;;;;;24.03;95.43;97400.53;6243123;23;20095;-95
2022/10/25 01:32:39;;;;;;;9.35;1.52;;;;;;;24.94;93.12;97405.13;6243951;23;20039;-95
2022/10/25 01:35:16;;;;;;;10.80;1.55;;;;;;;23.58;95.42;97403.47;6243573;23;20012;-94
2022/10/25 01:38:10;;;;;;;9.43;1.77;;;;;;;24.28;94.41;97401.09;6243522;23;20011;-94
2022/10/25 01:40:53;;;;;;;11.20;1.50;;;;;;;23.04;97.79;97399.91;6244264;23;20008;-95
2022/10/25 01:43:27;;;;;;;9.90;1.58;;;;;;;22.84;97.74;97401.56;6242844;23;20007;-96
2022/10/25 01:46:11;;;;;;;12.20;1.60;;;;;;;23.30;98.13;97402.28;6244140;23;20020;-94
2022/10/25 01:48:49;;;;;;;10.35;2.10;;;;;;;23.01;98.11;97416.13;6243879;23;20023;-96
2022/10/25 01:51:16;;;;;;;9.40;1.55;;;;;;;23.59;96.85;97421.13;6243900;23;20079;-94
2022/10/25 01:53:44;;;;;;;10.30;1.45;;;;;;;24.97;92.29;97418.19;6243801;23;20086;-94
2022/10/25 01:56:13;;;;;;;9.63;1.40;;;;;;;24.47;93.34;97423.50;6242852;23;20046;-95
2022/10/25 01:58:42;;;;;;;10.63;1.33;;;;;;;23.67;98.33;97424.00;6243787;23;20665;-94
2022/10/25 02:01:29;;;;;;;10.63;1.50;;;;;;;22.87;100.00;97424.34;6234911;22;20024;-95
2022/10/25 02:04:07;;;;;;;10.95;1.88;;;;;;;23.69;96.46;97427.38;6217130;23;20109;-96
2022/10/25 02:07:10;;;;;;;12.02;1.90;;;;;;;23.97;95.73;97429.53;6221397;23;20062;-96
2022/10/25 02:09:47;;;;;;;15.25;1.67;;;;;;;23.06;97.19;97434.34;6222081;23;20509;-96
2022/10/25 02:12:26;;;;;;;8.80;1.40;;;;;;;23.94;95.86;97419.13;6223415;23;20008;-96
2022/10/25 02:15:12;;;;;;;13.63;1.63;;;;;;;24.35;92.46;97412.91;6222741;23;20007;-96
2022/10/25 02:17:53;;;;;;;6.88;1.30;;;;;;;24.94;90.46;97417.59;6221528;23;20082;-96
2022/10/25 02:20:23;;;;;;;8.10;1.30;;;;;;;24.48;95.15;97427.81;6223061;23;20271;-96
2022/10/25 02:22:51;;;;;;;8.02;1.58;;;;;;;24.11;92.53;97418.53;6221285;23;20004;-96
2022/10/25 02:25:17;;;;;;;9.50;1.35;;;;;;;24.07;91.47;97424.28;6221776;23;20020;-96
2022/10/25 02:27:44;;;;;;;6.90;1.33;;;;;;;23.69;95.38;97421.22;6222127;23;20149;-96
2022/10/25 02:30:10;;;;;;;11.77;2.00;;;;;;;23.68;94.19;97427.50;6221960;23;20008;-96
2022/10/25 02:32:36;;;;;;;7.18;1.58;;;;;;;23.81;94.95;97416.66;6219883;23;20012;-96
2022/10/25 02:35:03;;;;;;;8.95;1.52;;;;;;;23.02;99.12;97426.63;6220828;23;20434;-96
2022/10/25 02:37:29;;;;;;;9.88;1.48;;;;;;;22.90;99.64;97419.66;6221179;23;20020;-96
2022/10/25 02:39:55;;;;;;;8.98;1.25;;;;;;;23.18;97.35;97426.25;6222184;23;20076;-96
2022/10/25 02:42:20;;;;;;;10.98;2.17;;;;;;;23.56;94.85;97418.72;6222630;23;20434;-96
2022/10/25 02:44:46;;;;;;;14.95;2.13;;;;;;;23.02;98.44;97410.69;6221801;23;20046;-96
2022/10/25 02:47:11;;;;;;;8.32;1.50;;;;;;;22.53;100.00;97427.06;6247722;23;20042;-96
2022/10/25 02:49:37;;;;;;;7.50;1.50;;;;;;;23.01;100.00;97418.78;6217542;23;20057;-96
2022/10/25 02:52:02;;;;;;;16.60;1.67;;;;;;;22.41;100.00;97432.41;6220362;23;20023;-96
2022/10/25 02:54:28;;;;;;;10.82;1.88;;;;;;;22.05;100.00;97423.66;6219653;23;20057;-96
2022/10/25 02:57:00;;;;;;;5.65;1.42;;;;;;;23.64;96.03;97415.41;6219455;23;20004;-96
2022/10/25 02:59:38;;;;;;;11.18;1.40;;;;;;;23.66;97.68;97429.44;6218687;23;20323;-96
2022/10/25 03:02:05;;;;;;;7.68;1.30;;;;;;;22.49;99.04;97451.22;6219136;23;20027;-96
2022/10/25 03:04:31;;;;;;;7.05;1.40;;;;;;;23.05;98.30;97438.84;6219627;23;20000;-95
2022/10/25 03:06:57;;;;;;;11.65;1.90;;;;;;;22.52;100.00;97433.34;6195030;23;20020;-96
2022/10/25 03:09:23;;;;;;;10.40;1.67;;;;;;;22.22;100.00;97432.13;6218905;23;20087;-96
2022/10/25 03:11:48;;;;;;;9.30;1.67;;;;;;;22.67;100.00;97432.13;6219314;23;20010;-95
2022/10/25 03:14:14;;;;;;;7.28;1.42;;;;;;;23.35;98.10;97432.84;6220145;23;20007;-96
2022/10/25 03:16:39;;;;;;;8.30;1.55;;;;;;;23.28;99.27;97438.78;6218825;23;20012;-96
2022/10/25 03:19:05;;;;;;;8.52;1.60;;;;;;;22.93;99.36;97435.34;6219902;23;20430;-96
2022/10/25 03:21:31;;;;;;;10.70;1.90;;;;;;;21.82;100.00;97439.53;6219910;23;20035;-96
2022/10/25 03:23:57;;;;;;;11.85;2.65;;;;;;;22.56;100.00;97440.09;6221838;23;20016;-96
2022/10/25 03:26:26;;;;;;;7.57;1.60;;;;;;;22.12;100.00;97450.56;6220384;23;20004;-96
2022/10/25 03:28:51;;;;;;;10.88;1.83;;;;;;;21.99;100.00;97434.75;6219763;23;20008;-96
2022/10/25 03:31:17;;;;;;;9.32;1.75;;;;;;;22.15;100.00;97448.50;6219123;23;20572;-96
2022/10/25 03:33:42;;;;;;;10.55;1.80;;;;;;;21.56;100.00;97449.47;6220226;23;20012;-96
2022/10/25 03:36:09;;;;;;;9.20;1.50;;;;;;;22.80;100.00;97451.44;6219994;23;20288;-96
2022/10/25 03:38:34;;;;;;;14.32;1.73;;;;;;;22.50;100.00;97444.97;6219783;23;20015;-96
2022/10/25 03:41:00;;;;;;;7.85;1.50;;;;;;;22.80;100.00;97455.94;6219418;23;20503;-95
2022/10/25 03:43:25;;;;;;;8.00;1.70;;;;;;;21.69;100.00;97454.69;6220392;23;20036;-96
2022/10/25 03:45:50;;;;;;;7.25;1.60;;;;;;;22.72;100.00;97461.84;6248137;23;20468;-95
2022/10/25 03:48:16;;;;;;;6.70;1.60;;;;;;;22.79;100.00;97455.06;6221254;23;20000;-96
2022/10/25 03:50:42;;;;;;;7.63;1.60;;;;;;;22.04;100.00;97448.50;6220470;23;20000;-96
2022/10/25 03:53:08;;;;;;;10.02;1.77;;;;;;;22.03;100.00;97457.41;6220777;23;20000;-96
2022/10/25 03:55:34;;;;;;;8.82;1.67;;;;;;;22.69;100.00;97446.16;6222338;23;20051;-96
2022/10/25 03:58:00;;;;;;;11.15;1.50;;;;;;;22.29;100.00;97451.91;6220498;23;20008;-96
2022/10/25 04:00:28;;;;;;;9.95;2.10;;;;;;;21.97;100.00;97442.81;6221322;23;20338;-96
2022/10/25 04:02:58;;;;;;;7.88;1.67;;;;;;;21.12;100.00;97459.69;6220034;23;20077;-96
2022/10/25 04:05:33;;;;;;;11.25;1.60;;;;;;;20.77;100.00;97463.09;6222124;23;20034;-96
2022/10/25 04:08:00;;;;;;;7.93;1.70;;;;;;;22.77;100.00;97467.66;6219739;23;20000;-96
2022/10/25 04:10:25;;;;;;;7.60;1.73;;;;;;;22.49;100.00;97471.63;6220692;23;20031;-96
2022/10/25 04:12:52;;;;;;;12.55;1.80;;;;;;;22.21;100.00;97463.13;6221152;23;20027;-96
2022/10/25 04:15:17;;;;;;;9.68;1.83;;;;;;;22.06;100.00;97467.81;6221784;23;20022;-96
2022/10/25 04:17:52;;;;;;;9.73;1.77;;;;;;;22.38;100.00;97459.19;6221776;23;20051;-96
2022/10/25 04:20:19;;;;;;;7.97;1.67;;;;;;;24.09;96.83;97457.78;6220318;23;20442;-95
2022/10/25 04:23:05;;;;;;;9.52;1.58;;;;;;;22.28;100.00;97467.00;6247648;23;20303;-96
2022/10/25 04:25:30;;;;;;;9.80;1.75;;;;;;;22.48;100.00;97467.28;6220966;23;20061;-96
2022/10/25 04:27:58;;;;;;;9.77;1.70;;;;;;;22.80;100.00;97474.53;6220270;23;20004;-96
2022/10/25 04:30:23;;;;;;;8.05;2.28;;;;;;;22.13;100.00;97477.00;6220246;23;20016;-96
2022/10/25 04:32:49;;;;;;;12.40;1.88;;;;;;;23.10;100.00;97475.69;6219297;23;20065;-96
2022/10/25 04:35:14;;;;;;;11.38;1.90;;;;;;;22.14;100.00;97476.03;6219368;23;20492;-96
2022/10/25 04:37:40;;;;;;;7.78;1.67;;;;;;;22.53;100.00;97477.56;6218987;23;20004;-96
2022/10/25 04:40:06;;;;;;;10.52;2.25;;;;;;;23.34;99.59;97464.91;6219760;23;20011;-96
2022/10/25 04:42:33;;;;;;;10.63;1.73;;;;;;;21.87;100.00;97494.09;6219491;23;20049;-96
2022/10/25 04:44:59;;;;;;;8.05;1.98;;;;;;;23.56;99.91;97482.56;6219156;23;20011;-96
2022/10/25 04:47:31;;;;;;;10.70;2.00;;;;;;;22.96;100.00;97492.75;6219721;23;20438;-96
2022/10/25 04:49:56;;;;;;;9.52;1.90;;;;;;;23.52;99.36;97490.00;6218620;23;20039;-96
2022/10/25 04:52:28;;;;;;;8.70;1.88;;;;;;;22.40;100.00;97496.28;6218743;23;20004;-95
2022/10/25 04:54:54;;;;;;;12.07;2.30;;;;;;;23.55;98.30;97494.22;6219275;23;20012;-96
2022/10/25 04:57:20;;;;;;;9.25;1.80;;;;;;;22.66;99.71;97494.22;6219175;23;20011;-96
2022/10/25 04:59:45;;;;;;;10.07;1.95;;;;;;;22.43;100.00;97509.31;6217972;23;20033;-96
2022/10/25 05:02:11;;;;;;;8.95;2.03;;;;;;;23.21;99.80;97502.28;6219165;23;20505;-95
2022/10/25 05:04:36;;;;;;;10.68;2.03;;;;;;;23.63;98.23;97515.72;6219011;23;20015;-96
2022/10/25 05:07:02;;;;;;;8.95;1.67;;;;;;;24.06;98.43;97518.47;6219429;23;20096;-96
2022/10/25 05:09:27;;;;;;;11.32;1.50;;;;;;;23.54;98.85;97516.47;6218824;23;20071;-95
2022/10/25 05:11:53;;;;;;;9.00;1.77;;;;;;;25.35;91.54;97517.13;6218371;23;20083;-96
2022/10/25 05:14:18;;;;;;;9.88;1.40;;;;;;;25.20;92.93;97516.66;6218881;23;20015;-96
2022/10/25 05:16:44;;;;;;;9.95;1.63;;;;;;;25.02;89.17;97511.97;6219298;23;20035;-96
2022/10/25 05:19:09;;;;;;;10.30;2.10;;;;;;;24.58;90.65;97519.34;6219145;23;20446;-96
2022/10/25 05:21:34;;;;;;;49.50;5.97;;;;;;;22.83;99.98;97536.25;6218384;23;20430;-96
2022/10/25 05:24:00;;;;;;;46.05;4.85;;;;;;;25.64;88.67;97535.84;6221202;23;20083;-96
2022/10/25 05:26:26;;;;;;;9.18;2.10;;;;;;;24.47;92.60;97541.59;6221202;23;20012;-96
2022/10/25 05:28:55;;;;;;;10.73;2.20;;;;;;;23.16;97.22;97553.19;6220560;23;20138;-95
2022/10/25 05:31:26;;;;;;;10.18;2.25;;;;;;;22.33;100.00;97556.94;6222731;23;20062;-96
2022/10/25 05:33:54;;;;;;;8.13;1.90;;;;;;;22.68;100.00;97561.38;6224327;23;20089;-96
2022/10/25 05:36:20;;;;;;;8.77;1.90;;;;;;;23.54;98.62;97555.56;6221806;23;20087;-96
2022/10/25 05:38:47;;;;;;;11.60;1.88;;;;;;;23.61;99.21;97565.56;6221750;23;20031;-96
2022/10/25 05:41:15;;;;;;;8.85;1.88;;;;;;;25.73;90.79;97558.19;6218727;23;20096;-96
2022/10/25 05:43:40;;;;;;;9.20;1.92;;;;;;;22.79;97.74;97563.22;6220323;23;20091;-96
2022/10/25 05:46:09;;;;;;;7.78;2.15;;;;;;;22.99;100.00;97561.63;6217667;23;20035;-96
2022/10/25 05:48:37;;;;;;;10.93;2.22;;;;;;;21.97;100.00;97556.94;6220258;23;20012;-96
2022/10/25 05:51:26;;;;;;;8.93;2.20;;;;;;;22.44;100.00;97558.81;6218617;23;20015;-96
2022/10/25 05:53:57;;;;;;;12.57;2.20;;;;;;;21.35;100.00;97557.09;6219396;23;20006;-96
2022/10/25 05:56:25;;;;;;;11.90;2.20;;;;;;;22.54;100.00;97559.78;6218997;23;20688;-96
2022/10/25 05:58:51;;;;;;;10.70;2.75;;;;;;;21.63;100.00;97551.50;6219232;23;20080;-96
2022/10/25 06:01:19;;;;;;;9.23;2.50;;;;;;;22.87;100.00;97557.28;6217972;23;20091;-96
2022/10/25 06:03:51;;;;;;;8.63;2.25;;;;;;;23.36;100.00;97564.03;6218917;23;20012;-95
2022/10/25 06:06:19;;;;;;;31.30;4.03;;;;;;;23.17;100.00;97565.53;6218747;23;20008;-95
2022/10/25 06:08:45;;;;;;;8.32;2.42;;;;;;;23.74;97.69;97568.06;6245447;23;20099;-95
2022/10/25 06:11:20;;;;;;;8.68;2.30;;;;;;;23.30;100.00;97581.34;6219162;23;20031;-95
2022/10/25 06:13:46;;;;;;;10.32;2.45;;;;;;;22.46;100.00;97573.69;6218612;23;20202;-96
2022/10/25 06:16:14;;;;;;;11.68;2.38;;;;;;;22.28;100.00;97583.88;6214005;23;20035;-96
2022/10/25 06:18:40;;;;;;;15.30;2.45;;;;;;;23.16;100.00;97578.97;6212968;23;20043;-96
2022/10/25 06:21:11;;;;;;;10.10;3.08;;;;;;;22.68;100.00;97588.78;6212304;23;20004;-96
2022/10/25 06:23:38;;;;;;;12.30;3.03;;;;;;;23.67;98.40;97582.84;6213082;23;20057;-96
2022/10/25 06:26:06;;;;;;;18.73;3.38;;;;;;;22.39;100.00;97582.22;6213829;23;20031;-96
2022/10/25 06:28:32;;;;;;;12.38;3.30;;;;;;;22.68;100.00;97594.09;6213323;23;20004;-96
2022/10/25 06:31:08;;;;;;;9.15;2.55;;;;;;;24.08;95.01;97591.94;6214154;23;20383;-96
2022/10/25 06:33:34;;;;;;;9.35;2.42;;;;;;;22.57;99.17;97594.09;6213789;23;20022;-96
2022/10/25 06:36:01;;;;;;;12.55;2.80;;;;;;;23.23;98.47;97590.78;6240710;23;20031;-95
2022/10/25 06:38:27;;;;;;;9.95;2.80;;;;;;;22.80;98.54;97607.44;6213384;23;20008;-96
2022/10/25 06:41:04;;;;;;;11.40;2.70;;;;;;;23.52;96.56;97606.22;6214490;23;20036;-96
2022/10/25 06:43:33;;;;;;;8.35;2.45;;;;;;;24.01;92.77;97606.75;6213495;23;20045;-96
2022/10/25 06:46:06;;;;;;;9.18;2.25;;;;;;;24.40;93.67;97603.50;6214013;23;20004;-96
2022/10/25 06:48:31;;;;;;;10.02;2.25;;;;;;;25.55;87.92;97608.75;6213984;23;20023;-96
2022/10/25 06:51:08;;;;;;;8.18;2.08;;;;;;;25.85;88.11;97615.00;6213087;23;20027;-96
2022/10/25 06:53:34;;;;;;;8.90;2.30;;;;;;;25.03;88.07;97614.16;6213238;23;20091;-96
2022/10/25 06:56:04;;;;;;;11.32;2.00;;;;;;;24.16;92.28;97615.25;6217299;23;20354;-96
2022/10/25 06:58:33;;;;;;;12.70;2.10;;;;;;;25.42;87.99;97616.19;6220624;23;20089;-96
2022/10/25 07:01:08;;;;;;;9.63;2.22;;;;;;;26.02;83.11;97617.00;6219758;23;20027;-96
2022/10/25 07:03:46;;;;;;;10.48;2.13;;;;;;;25.42;85.77;97622.34;6221244;23;20053;-96
2022/10/25 07:06:36;;;;;;;8.95;2.00;;;;;;;25.80;82.97;97617.25;6220846;23;20046;-96
2022/10/25 07:09:04;;;;;;;9.00;1.80;;;;;;;24.28;89.37;97627.56;6220084;23;20015;-96
2022/10/25 07:11:31;;;;;;;6.75;1.90;;;;;;;24.04;88.24;97633.13;6218915;23;20012;-96
2022/10/25 07:14:00;;;;;;;8.30;1.90;;;;;;;23.06;93.41;97634.66;6218545;23;20059;-95
2022/10/25 07:16:27;;;;;;;12.55;2.70;;;;;;;24.03;91.40;97645.56;6220464;23;20064;-96
2022/10/25 07:18:57;;;;;;;10.00;2.22;;;;;;;24.59;87.88;97640.13;6217712;23;20007;-94
2022/10/25 07:21:22;;;;;;;13.52;2.20;;;;;;;24.73;89.16;97633.66;6242401;23;20012;-96
2022/10/25 07:23:49;;;;;;;15.35;2.30;;;;;;;24.54;89.62;97635.19;6216871;23;20031;-95
2022/10/25 07:26:19;;;;;;;11.27;2.33;;;;;;;25.68;85.07;97619.22;6219328;23;20004;-96
2022/10/25 07:28:49;;;;;;;9.32;1.50;;;;;;;24.84;87.95;97630.91;6219109;23;20012;-96
2022/10/25 07:31:28;;;;;;;8.45;1.70;;;;;;;27.58;80.72;97656.00;6217028;23;20026;-96
2022/10/25 07:33:57;;;;;;;6.32;1.50;;;;;;;25.70;83.55;97649.28;6219570;23;20008;-96
2022/10/25 07:36:25;;;;;;;8.88;1.58;;;;;;;26.08;84.54;97658.34;6219841;23;20039;-96
2022/10/25 07:38:51;;;;;;;18.23;2.55;;;;;;;25.28;86.10;97665.41;6219530;23;20139;-96
2022/10/25 07:41:17;;;;;;;6.88;1.48;;;;;;;24.44;88.63;97645.78;6220269;23;20004;-96
2022/10/25 07:43:42;;;;;;;13.93;2.17;;;;;;;24.12;91.63;97662.63;6254396;23;20019;-96
2022/10/25 07:46:08;;;;;;;13.27;2.40;;;;;;;23.88;92.76;97657.47;6223412;23;20049;-96
2022/10/25 07:48:35;;;;;;;10.23;2.33;;;;;;;23.73;93.39;97674.66;6222672;23;20023;-96
2022/10/25 07:51:10;;;;;;;9.57;1.98;;;;;;;24.40;91.03;97668.34;6222076;23;20012;-96
2022/10/25 07:53:35;;;;;;;7.05;2.10;;;;;;;22.35;97.69;97668.41;6223687;23;20025;-96
2022/10/25 07:56:01;;;;;;;9.02;2.00;;;;;;;22.91;98.38;97657.97;6230669;23;19984;-96
2022/10/25 07:58:44;;;;;;;8.90;2.03;;;;;;;23.07;97.92;97670.06;6230311;23;20031;-96
2022/10/25 08:01:10;;;;;;;8.98;2.30;;;;;;;22.21;100.00;97664.94;6230159;23;20012;-96
2022/10/25 08:03:42;;;;;;;10.40;2.58;;;;;;;23.80;96.83;97674.06;6229395;23;20042;-96
2022/10/25 08:06:08;;;;;;;8.13;2.17;;;;;;;23.79;96.26;97671.53;6230587;23;20004;-96
2022/10/25 08:08:35;;;;;;;10.52;2.17;;;;;;;23.93;97.23;97687.25;6252501;23;20012;-96
2022/10/25 08:11:03;;;;;;;8.65;2.45;;;;;;;23.73;95.20;97678.19;6230075;23;20012;-96
2022/10/25 08:13:29;;;;;;;10.57;2.33;;;;;;;23.85;95.80;97693.19;6229224;23;20000;-96
2022/10/25 08:15:55;;;;;;;6.90;2.05;;;;;;;23.18;99.19;97686.06;6228401;23;20023;-96
2022/10/25 08:18:23;;;;;;;8.55;1.88;;;;;;;23.05;100.00;97694.13;6225674;23;20012;-96
2022/10/25 08:20:49;;;;;;;7.15;1.95;;;;;;;23.18;100.00;97699.34;6224943;23;19996;-96
2022/10/25 08:23:25;;;;;;;8.23;2.20;;;;;;;23.41;98.08;97692.25;6226993;23;20012;-96
2022/10/25 08:25:51;;;;;;;11.45;2.63;;;;;;;22.90;100.00;97698.78;6227716;23;20025;-96
2022/10/25 08:28:19;;;;;;;7.07;2.05;;;;;;;23.29;100.00;97707.34;6228525;23;20292;-96
2022/10/25 08:30:46;;;;;;;11.23;2.25;;;;;;;24.19;98.00;97690.44;6221626;23;20068;-96
2022/10/25 08:33:11;;;;;;;10.23;2.50;;;;;;;25.88;92.00;97701.03;6250885;23;20012;-96
2022/10/25 08:35:37;;;;;;;11.27;2.50;;;;;;;25.59;90.99;97703.63;6222658;23;20014;-96
2022/10/25 08:38:03;;;;;;;8.15;1.90;;;;;;;24.90;93.35;97714.88;6224173;23;20008;-96
2022/10/25 08:40:48;;;;;;;8.10;2.13;;;;;;;26.19;90.13;97713.50;6223694;23;20007;-96
2022/10/25 08:43:47;;;;;;;7.85;1.80;;;;;;;26.22;88.39;97711.41;6247749;23;20083;-96
2022/10/25 08:46:23;;;;;;;7.53;2.13;;;;;;;26.41;88.01;97717.75;6220619;23;20004;-96
2022/10/25 08:48:54;;;;;;;9.13;1.92;;;;;;;25.68;91.96;97712.66;6221698;23;20085;-96
2022/10/25 08:51:34;;;;;;;9.07;1.90;;;;;;;25.88;91.86;97711.72;6224905;23;20012;-96
2022/10/25 08:54:05;;;;;;;8.98;1.85;;;;;;;26.03;88.33;97703.38;6222019;23;20134;-96
2022/10/25 08:56:31;;;;;;;7.90;1.80;;;;;;;28.19;82.81;97714.53;6220855;23;20015;-96
2022/10/25 08:59:00;;;;;;;8.80;2.22;;;;;;;28.24;81.84;97720.25;6219835;23;20019;-96
2022/10/25 09:01:32;;;;;;;12.52;1.98;;;;;;;29.56;79.72;97722.22;6218306;23;20188;-96
2022/10/25 09:04:09;;;;;;;8.18;1.83;;;;;;;29.14;79.77;97738.19;6219163;23;20042;-96
2022/10/25 09:06:55;;;;;;;8.25;1.83;;;;;;;27.65;83.22;97743.81;6219687;23;20004;-96
2022/10/25 09:09:33;;;;;;;6.60;1.70;;;;;;;27.88;82.76;97738.94;6219936;23;20046;-96
2022/10/25 09:12:14;;;;;;;9.15;1.90;;;;;;;27.83;82.84;97739.38;6228217;23;20016;-96
2022/10/25 09:14:49;;;;;;;9.98;1.77;;;;;;;25.66;89.15;97747.47;6218966;23;20008;-96
2022/10/25 09:17:17;;;;;;;8.57;2.33;;;;;;;24.55;94.63;97751.47;6218608;23;20035;-96
2022/10/25 09:19:57;;;;;;;9.60;1.90;;;;;;;24.79;97.97;97761.13;6219416;23;20012;-96
2022/10/25 09:22:44;;;;;;;7.82;2.35;;;;;;;26.06;93.96;97751.19;6228833;23;20079;-96
2022/10/25 09:25:19;;;;;;;9.73;2.15;;;;;;;24.69;96.56;97763.69;6220763;23;20008;-96
2022/10/25 09:28:15;;;;;;;10.13;2.50;;;;;;;25.71;96.10;97752.44;6220460;23;20091;-96
2022/10/25 09:30:55;;;;;;;9.68;2.25;;;;;;;24.42;94.54;97761.47;6221526;23;20001;-96
2022/10/25 09:33:29;;;;;;;9.82;2.50;;;;;;;26.00;94.78;97765.03;6220612;23;20011;-96
2022/10/25 09:35:56;;;;;;;9.95;2.63;;;;;;;23.75;100.00;97756.09;6220104;23;20057;-96
2022/10/25 09:38:44;;;;;;;7.60;2.60;;;;;;;24.66;99.94;97763.97;6225100;23;20008;-96
2022/10/25 09:41:13;;;;;;;11.65;2.53;;;;;;;24.96;99.17;97779.22;6219427;23;20016;-96
2022/10/25 09:43:49;;;;;;;9.98;2.83;;;;;;;24.22;100.00;97776.41;6221167;23;20008;-96
2022/10/25 09:46:39;;;;;;;8.90;2.05;;;;;;;25.34;97.64;97756.47;6218905;23;20008;-96
2022/10/25 09:49:30;;;;;;;8.43;2.28;;;;;;;25.21;96.22;97759.31;6202122;23;20721;-96
2022/10/25 09:52:10;;;;;;;7.20;2.08;;;;;;;25.71;95.29;97766.63;6218351;23;20079;-96
2022/10/25 09:54:44;;;;;;;8.43;2.28;;;;;;;25.46;97.33;97764.41;6219231;23;20004;-96
2022/10/25 09:57:09;;;;;;;6.18;1.90;;;;;;;24.99;98.77;97754.13;6219312;23;20008;-96
2022/10/25 09:59:35;;;;;;;8.25;2.28;;;;;;;25.84;94.60;97769.06;6244783;23;20057;-96
2022/10/25 10:02:03;;;;;;;6.38;1.92;;;;;;;24.36;100.00;97770.81;6218218;23;20056;-96
2022/10/25 10:04:37;;;;;;;8.30;2.67;;;;;;;26.06;95.16;97751.19;6219433;23;20004;-96
2022/10/25 10:07:10;;;;;;;10.82;2.40;;;;;;;26.22;92.10;97756.00;6218933;23;20092;-96
2022/10/25 10:09:39;;;;;;;10.23;2.45;;;;;;;26.84;92.34;97772.69;6245767;23;20012;-96
2022/10/25 10:12:14;;;;;;;7.25;2.15;;;;;;;27.57;90.58;97764.16;6219475;23;20004;-96
2022/10/25 10:14:59;;;;;;;8.10;2.20;;;;;;;27.80;89.64;97766.47;6219742;23;20039;-96
2022/10/25 10:17:28;;;;;;;8.52;2.20;;;;;;;25.89;98.00;97768.69;6217791;23;20032;-96
2022/10/25 10:20:07;;;;;;;8.70;2.35;;;;;;;24.71;98.23;97770.59;6217354;23;20012;-96
2022/10/25 10:22:53;;;;;;;8.88;2.10;;;;;;;27.11;93.34;97768.44;6244902;23;20218;-95
2022/10/25 10:25:23;;;;;;;7.85;2.10;;;;;;;25.82;97.29;97770.22;6218988;23;20116;-96
2022/10/25 10:27:51;;;;;;;9.70;2.20;;;;;;;28.33;88.38;97775.66;6217946;23;20000;-96
2022/10/25 10:30:29;;;;;;;6.78;2.30;;;;;;;28.24;88.17;97764.00;6218360;23;20067;-96
2022/10/25 10:33:18;;;;;;;7.20;2.05;;;;;;;29.81;83.77;97773.38;6219805;23;20003;-95
2022/10/25 10:35:48;;;;;;;10.10;2.60;;;;;;;29.12;83.14;97782.13;6219487;23;20008;-96
2022/10/25 10:38:21;;;;;;;9.65;2.45;;;;;;;28.05;85.39;97783.72;6220128;23;20012;-96
2022/10/25 10:40:56;;;;;;;7.88;2.20;;;;;;;26.96;87.26;97761.84;6220484;23;20027;-96
2022/10/25 10:43:21;;;;;;;7.65;2.17;;;;;;;26.00;91.53;97786.41;6220276;23;20004;-96
2022/10/25 10:45:50;;;;;;;8.93;2.00;;;;;;;26.27;91.53;97763.63;6247537;23;20107;-96
2022/10/25 10:48:26;;;;;;;7.45;2.25;;;;;;;28.08;87.32;97779.91;6221735;23;20094;-96
2022/10/25 10:50:54;;;;;;;9.73;2.20;;;;;;;26.98;89.29;97792.81;6221418;23;20005;-96
2022/10/25 10:53:53;;;;;;;7.65;2.58;;;;;;;28.30;86.73;97800.09;6221438;23;20032;-96
2022/10/25 10:56:22;;;;;;;8.02;2.53;;;;;;;27.07;88.11;97800.00;6221280;23;20015;-96
2022/10/25 10:58:50;;;;;;;6.57;2.40;;;;;;;28.87;83.07;97796.38;6219971;23;20015;-96
2022/10/25 11:01:28;;;;;;;6.60;2.00;;;;;;;28.02;85.15;97793.91;6220275;23;20430;-96
2022/10/25 11:04:00;;;;;;;6.03;1.95;;;;;;;28.55;85.34;97800.38;6220727;23;20012;-96
2022/10/25 11:06:34;;;;;;;8.85;2.10;;;;;;;28.72;84.24;97793.38;6249838;23;20019;-95
2022/10/25 11:09:07;;;;;;;6.72;1.70;;;;;;;28.37;84.82;97786.94;6220942;23;20004;-96
2022/10/25 11:11:32;;;;;;;7.35;1.60;;;;;;;25.34;94.57;97804.50;6220412;23;20000;-96
2022/10/25 11:14:00;;;;;;;6.68;2.10;;;;;;;28.36;84.63;97793.28;6218490;23;20022;-96
2022/10/25 11:16:28;;;;;;;8.80;1.70;;;;;;;27.65;86.29;97802.75;6219406;23;20008;-96
2022/10/25 11:19:24;;;;;;;7.72;1.58;;;;;;;28.13;87.04;97804.44;6219362;23;20015;-96
2022/10/25 11:22:09;;;;;;;6.30;1.63;;;;;;;27.85;84.14;97804.38;6219676;23;20022;-96
2022/10/25 11:24:35;;;;;;;9.38;1.50;;;;;;;27.96;85.54;97797.97;6219953;23;20000;-96
2022/10/25 11:27:16;;;;;;;6.43;1.42;;;;;;;26.67;88.58;97789.44;6220033;23;19996;-96
2022/10/25 11:30:02;;;;;;;4.75;1.20;;;;;;;27.48;87.77;97789.13;6219136;23;20093;-95
2022/10/25 11:32:30;;;;;;;6.90;1.20;;;;;;;26.03;92.29;97803.06;6245704;23;20019;-96
2022/10/25 11:35:01;;;;;;;6.75;1.30;;;;;;;24.80;94.81;97795.66;6219802;23;20099;-95
2022/10/25 11:37:47;;;;;;;6.07;1.55;;;;;;;25.09;98.16;97804.88;6219744;23;20069;-96
2022/10/25 11:40:17;;;;;;;6.53;1.50;;;;;;;26.89;90.75;97786.50;6219796;23;20007;-96
2022/10/25 11:42:59;;;;;;;6.55;1.70;;;;;;;26.82;92.45;97785.38;6220583;23;20008;-95
2022/10/25 11:45:54;;;;;;;8.23;1.60;;;;;;;25.45;96.97;97792.91;6223189;23;20087;-96
2022/10/25 11:48:57;;;;;;;6.93;1.25;;;;;;;26.33;92.65;97785.31;6221132;23;20020;-96